sensor_id;sensor_type;location;lat;lon;timestamp;pressure;altitude;pressure_sealevel;temperature;humidity
49459;BME280;35354;51.296;16.924;2023-03-22T00:01:11;99403.50;;;9.01;100.00
49459;BME280;35354;51.296;16.924;2023-03-22T00:03:36;99405.25;;;9.00;100.00
49459;BME280;35354;51.296;16.924;2023-03-22T00:06:02;99373.16;;;8.83;100.00
49459;BME280;35354;51.296;16.924;2023-03-22T00:08:27;99365.50;;;8.80;100.00
49459;BME280;35354;51.296;16.924;2023-03-22T00:10:53;99380.66;;;8.89;100.00
49459;BME280;35354;51.296;16.924;2023-03-22T00:13:18;99394.81;;;9.02;100.00
49459;BME280;35354;51.296;16.924;2023-03-22T00:15:43;99366.00;;;8.88;100.00
49459;BME280;35354;51.296;16.924;2023-03-22T00:18:12;99391.22;;;9.05;100.00
49459;BME280;35354;51.296;16.924;2023-03-22T00:20:45;99370.75;;;8.98;100.00
49459;BME280;35354;51.296;16.924;2023-03-22T00:23:11;99352.09;;;8.89;100.00
49459;BME280;35354;51.296;16.924;2023-03-22T00:25:36;99353.22;;;8.83;100.00
49459;BME280;35354;51.296;16.924;2023-03-22T00:28:01;99328.19;;;8.82;100.00
49459;BME280;35354;51.296;16.924;2023-03-22T00:30:27;99341.91;;;8.84;100.00
49459;BME280;35354;51.296;16.924;2023-03-22T00:32:52;99365.97;;;9.08;100.00
49459;BME280;35354;51.296;16.924;2023-03-22T00:35:17;99366.94;;;9.06;100.00
49459;BME280;35354;51.296;16.924;2023-03-22T00:37:43;99359.34;;;9.01;100.00
49459;BME280;35354;51.296;16.924;2023-03-22T00:40:11;99363.44;;;9.07;100.00
49459;BME280;35354;51.296;16.924;2023-03-22T00:42:38;99357.41;;;9.06;100.00
49459;BME280;35354;51.296;16.924;2023-03-22T00:45:05;99352.75;;;9.13;100.00
49459;BME280;35354;51.296;16.924;2023-03-22T00:47:31;99345.88;;;9.12;100.00
49459;BME280;35354;51.296;16.924;2023-03-22T00:49:56;99330.97;;;8.96;100.00
49459;BME280;35354;51.296;16.924;2023-03-22T00:52:22;99353.91;;;9.07;100.00
49459;BME280;35354;51.296;16.924;2023-03-22T00:54:47;99343.91;;;8.98;100.00
49459;BME280;35354;51.296;16.924;2023-03-22T00:57:13;99329.38;;;8.94;100.00
49459;BME280;35354;51.296;16.924;2023-03-22T00:59:39;99322.00;;;9.04;100.00
49459;BME280;35354;51.296;16.924;2023-03-22T01:02:07;99331.56;;;9.03;100.00
49459;BME280;35354;51.296;16.924;2023-03-22T01:04:33;99335.56;;;9.10;100.00
49459;BME280;35354;51.296;16.924;2023-03-22T01:07:00;99312.88;;;8.95;100.00
49459;BME280;35354;51.296;16.924;2023-03-22T01:09:27;99319.13;;;8.91;100.00
49459;BME280;35354;51.296;16.924;2023-03-22T01:11:58;99317.66;;;8.85;100.00
49459;BME280;35354;51.296;16.924;2023-03-22T01:14:24;99328.63;;;9.11;100.00
49459;BME280;35354;51.296;16.924;2023-03-22T01:16:50;99313.94;;;8.91;100.00
49459;BME280;35354;51.296;16.924;2023-03-22T01:19:19;99328.38;;;8.96;100.00
49459;BME280;35354;51.296;16.924;2023-03-22T01:21:44;99327.34;;;9.00;100.00
49459;BME280;35354;51.296;16.924;2023-03-22T01:24:10;99285.06;;;8.78;100.00
49459;BME280;35354;51.296;16.924;2023-03-22T01:26:35;99305.59;;;9.03;100.00
49459;BME280;35354;51.296;16.924;2023-03-22T01:29:00;99326.06;;;9.09;100.00
49459;BME280;35354;51.296;16.924;2023-03-22T01:31:26;99321.38;;;8.98;100.00
49459;BME280;35354;51.296;16.924;2023-03-22T01:33:51;99307.59;;;8.96;100.00
49459;BME280;35354;51.296;16.924;2023-03-22T01:36:16;99317.88;;;8.99;100.00
49459;BME280;35354;51.296;16.924;2023-03-22T01:38:42;99313.38;;;9.03;100.00
49459;BME280;35354;51.296;16.924;2023-03-22T01:41:07;99309.94;;;9.03;100.00
49459;BME280;35354;51.296;16.924;2023-03-22T01:43:32;99287.88;;;8.92;100.00
49459;BME280;35354;51.296;16.924;2023-03-22T01:45:58;99310.44;;;9.11;100.00
49459;BME280;35354;51.296;16.924;2023-03-22T01:48:26;99308.09;;;9.05;100.00
49459;BME280;35354;51.296;16.924;2023-03-22T01:53:24;99309.09;;;9.21;100.00
49459;BME280;35354;51.296;16.924;2023-03-22T01:55:51;99306.34;;;9.24;100.00
49459;BME280;35354;51.296;16.924;2023-03-22T01:58:17;99275.44;;;9.18;100.00
49459;BME280;35354;51.296;16.924;2023-03-22T02:00:45;99277.69;;;9.25;100.00
49459;BME280;35354;51.296;16.924;2023-03-22T02:03:13;99276.94;;;9.23;100.00
49459;BME280;35354;51.296;16.924;2023-03-22T02:05:42;99262.75;;;9.12;100.00
49459;BME280;35354;51.296;16.924;2023-03-22T02:08:07;99273.84;;;9.15;100.00
49459;BME280;35354;51.296;16.924;2023-03-22T02:10:33;99279.31;;;9.09;100.00
49459;BME280;35354;51.296;16.924;2023-03-22T02:16:03;99301.16;;;9.24;100.00
49459;BME280;35354;51.296;16.924;2023-03-22T02:29:18;99269.44;;;8.98;100.00
49459;BME280;35354;51.296;16.924;2023-03-22T02:38:04;99284.03;;;9.01;100.00
49459;BME280;35354;51.296;16.924;2023-03-22T02:40:42;99288.88;;;9.09;100.00
49459;BME280;35354;51.296;16.924;2023-03-22T02:43:38;99250.81;;;8.89;100.00
49459;BME280;35354;51.296;16.924;2023-03-22T02:49:02;99290.41;;;9.32;100.00
49459;BME280;35354;51.296;16.924;2023-03-22T02:52:05;99271.50;;;9.28;100.00
49459;BME280;35354;51.296;16.924;2023-03-22T02:54:50;99274.16;;;9.27;100.00
49459;BME280;35354;51.296;16.924;2023-03-22T02:57:27;99292.91;;;9.33;100.00
49459;BME280;35354;51.296;16.924;2023-03-22T02:59:56;99276.00;;;9.24;100.00
49459;BME280;35354;51.296;16.924;2023-03-22T03:02:23;99259.72;;;9.21;100.00
49459;BME280;35354;51.296;16.924;2023-03-22T03:04:51;99297.47;;;9.47;100.00
49459;BME280;35354;51.296;16.924;2023-03-22T03:07:21;99301.72;;;9.48;100.00
49459;BME280;35354;51.296;16.924;2023-03-22T03:09:50;99307.34;;;9.58;100.00
49459;BME280;35354;51.296;16.924;2023-03-22T03:12:21;99272.84;;;9.37;100.00
49459;BME280;35354;51.296;16.924;2023-03-22T03:14:47;99315.84;;;9.61;100.00
49459;BME280;35354;51.296;16.924;2023-03-22T03:22:51;99293.50;;;9.40;100.00
49459;BME280;35354;51.296;16.924;2023-03-22T03:25:35;99300.97;;;9.46;100.00
49459;BME280;35354;51.296;16.924;2023-03-22T03:28:11;99286.75;;;9.36;100.00
49459;BME280;35354;51.296;16.924;2023-03-22T03:33:33;99311.94;;;9.53;100.00
49459;BME280;35354;51.296;16.924;2023-03-22T03:36:08;99316.34;;;9.50;100.00
49459;BME280;35354;51.296;16.924;2023-03-22T03:38:36;99274.94;;;9.29;100.00
49459;BME280;35354;51.296;16.924;2023-03-22T03:41:07;99315.66;;;9.47;100.00
49459;BME280;35354;51.296;16.924;2023-03-22T03:43:34;99293.13;;;9.29;100.00
49459;BME280;35354;51.296;16.924;2023-03-22T03:46:00;99313.34;;;9.41;100.00
49459;BME280;35354;51.296;16.924;2023-03-22T03:48:29;99324.59;;;9.41;100.00
49459;BME280;35354;51.296;16.924;2023-03-22T03:50:56;99293.06;;;9.30;100.00
49459;BME280;35354;51.296;16.924;2023-03-22T03:53:22;99297.19;;;9.34;100.00
49459;BME280;35354;51.296;16.924;2023-03-22T03:55:48;99316.50;;;9.47;100.00
49459;BME280;35354;51.296;16.924;2023-03-22T03:58:14;99306.53;;;9.38;100.00
49459;BME280;35354;51.296;16.924;2023-03-22T04:00:41;99309.00;;;9.41;100.00
49459;BME280;35354;51.296;16.924;2023-03-22T04:03:07;99303.19;;;9.36;100.00
49459;BME280;35354;51.296;16.924;2023-03-22T04:05:32;99329.56;;;9.46;100.00
49459;BME280;35354;51.296;16.924;2023-03-22T04:07:57;99317.56;;;9.43;100.00
49459;BME280;35354;51.296;16.924;2023-03-22T04:10:23;99272.84;;;9.18;100.00
49459;BME280;35354;51.296;16.924;2023-03-22T04:12:48;99289.72;;;9.28;100.00
49459;BME280;35354;51.296;16.924;2023-03-22T04:15:14;99281.22;;;9.24;100.00
49459;BME280;35354;51.296;16.924;2023-03-22T04:17:39;99276.00;;;9.24;100.00
49459;BME280;35354;51.296;16.924;2023-03-22T04:20:07;99303.22;;;9.35;100.00
49459;BME280;35354;51.296;16.924;2023-03-22T04:22:36;99281.97;;;9.27;100.00
49459;BME280;35354;51.296;16.924;2023-03-22T04:25:04;99304.78;;;9.39;100.00
49459;BME280;35354;51.296;16.924;2023-03-22T04:27:29;99292.09;;;9.33;100.00
49459;BME280;35354;51.296;16.924;2023-03-22T04:29:55;99275.31;;;9.21;100.00
49459;BME280;35354;51.296;16.924;2023-03-22T04:32:21;99283.81;;;9.24;100.00
49459;BME280;35354;51.296;16.924;2023-03-22T04:34:49;99293.63;;;9.18;100.00
49459;BME280;35354;51.296;16.924;2023-03-22T04:37:15;99285.56;;;9.24;100.00
49459;BME280;35354;51.296;16.924;2023-03-22T04:39:41;99266.09;;;9.14;100.00
49459;BME280;35354;51.296;16.924;2023-03-22T04:42:07;99267.81;;;9.15;100.00
49459;BME280;35354;51.296;16.924;2023-03-22T04:44:33;99254.47;;;9.04;100.00
49459;BME280;35354;51.296;16.924;2023-03-22T04:46:58;99255.44;;;9.01;100.00
49459;BME280;35354;51.296;16.924;2023-03-22T04:49:23;99264.03;;;9.03;100.00
49459;BME280;35354;51.296;16.924;2023-03-22T04:51:50;99274.13;;;9.09;100.00
49459;BME280;35354;51.296;16.924;2023-03-22T04:54:16;99281.56;;;9.17;100.00
49459;BME280;35354;51.296;16.924;2023-03-22T04:56:41;99287.53;;;9.19;100.00
49459;BME280;35354;51.296;16.924;2023-03-22T04:59:06;99269.91;;;9.07;100.00
49459;BME280;35354;51.296;16.924;2023-03-22T05:01:32;99266.63;;;9.03;100.00
49459;BME280;35354;51.296;16.924;2023-03-22T05:03:59;99261.28;;;9.06;100.00
49459;BME280;35354;51.296;16.924;2023-03-22T05:06:24;99285.47;;;9.25;100.00
49459;BME280;35354;51.296;16.924;2023-03-22T05:08:51;99290.97;;;9.19;100.00
49459;BME280;35354;51.296;16.924;2023-03-22T05:11:16;99273.84;;;9.15;100.00
49459;BME280;35354;51.296;16.924;2023-03-22T05:13:44;99276.38;;;9.17;100.00
49459;BME280;35354;51.296;16.924;2023-03-22T05:16:10;99264.78;;;9.05;100.00
49459;BME280;35354;51.296;16.924;2023-03-22T05:18:35;99264.56;;;9.10;100.00
49459;BME280;35354;51.296;16.924;2023-03-22T05:21:10;99261.84;;;8.94;100.00
49459;BME280;35354;51.296;16.924;2023-03-22T05:23:38;99259.88;;;8.99;100.00
49459;BME280;35354;51.296;16.924;2023-03-22T05:26:03;99267.38;;;9.05;100.00
49459;BME280;35354;51.296;16.924;2023-03-22T05:28:28;99292.66;;;9.20;100.00
49459;BME280;35354;51.296;16.924;2023-03-22T05:30:56;99282.63;;;9.13;100.00
49459;BME280;35354;51.296;16.924;2023-03-22T05:33:21;99290.91;;;9.21;100.00
49459;BME280;35354;51.296;16.924;2023-03-22T05:35:47;99297.06;;;9.18;100.00
49459;BME280;35354;51.296;16.924;2023-03-22T05:38:14;99283.66;;;9.09;100.00
49459;BME280;35354;51.296;16.924;2023-03-22T05:40:40;99254.53;;;8.83;100.00
49459;BME280;35354;51.296;16.924;2023-03-22T05:43:06;99277.84;;;9.04;100.00
49459;BME280;35354;51.296;16.924;2023-03-22T05:45:31;99276.38;;;9.17;100.00
49459;BME280;35354;51.296;16.924;2023-03-22T05:47:57;99268.59;;;8.98;100.00
49459;BME280;35354;51.296;16.924;2023-03-22T05:50:23;99249.13;;;8.88;100.00
49459;BME280;35354;51.296;16.924;2023-03-22T05:52:49;99260.09;;;8.94;100.00
49459;BME280;35354;51.296;16.924;2023-03-22T05:55:16;99282.34;;;9.19;100.00
49459;BME280;35354;51.296;16.924;2023-03-22T05:57:43;99263.44;;;9.15;100.00
49459;BME280;35354;51.296;16.924;2023-03-22T06:00:11;99282.53;;;9.33;100.00
49459;BME280;35354;51.296;16.924;2023-03-22T06:02:40;99284.28;;;9.33;100.00
49459;BME280;35354;51.296;16.924;2023-03-22T06:05:06;99282.75;;;9.29;100.00
49459;BME280;35354;51.296;16.924;2023-03-22T06:07:33;99291.72;;;9.40;100.00
49459;BME280;35354;51.296;16.924;2023-03-22T06:09:58;99285.00;;;9.36;100.00
49459;BME280;35354;51.296;16.924;2023-03-22T06:12:24;99260.28;;;9.28;100.00
49459;BME280;35354;51.296;16.924;2023-03-22T06:14:50;99274.22;;;9.44;100.00
49459;BME280;35354;51.296;16.924;2023-03-22T06:17:16;99287.75;;;9.50;100.00
49459;BME280;35354;51.296;16.924;2023-03-22T06:19:41;99287.63;;;9.54;100.00
49459;BME280;35354;51.296;16.924;2023-03-22T06:22:07;99276.84;;;9.44;100.00
49459;BME280;35354;51.296;16.924;2023-03-22T06:24:32;99297.56;;;9.63;100.00
49459;BME280;35354;51.296;16.924;2023-03-22T06:26:58;99277.50;;;9.47;100.00
49459;BME280;35354;51.296;16.924;2023-03-22T06:29:23;99283.97;;;9.75;100.00
49459;BME280;35354;51.296;16.924;2023-03-22T06:31:48;99274.19;;;10.32;100.00
49459;BME280;35354;51.296;16.924;2023-03-22T06:34:13;99258.84;;;11.24;100.00
49459;BME280;35354;51.296;16.924;2023-03-22T06:36:39;99293.09;;;12.40;100.00
49459;BME280;35354;51.296;16.924;2023-03-22T06:39:06;99289.59;;;13.52;95.26
49459;BME280;35354;51.296;16.924;2023-03-22T06:41:32;99289.50;;;14.46;89.28
49459;BME280;35354;51.296;16.924;2023-03-22T06:43:58;99271.44;;;14.92;86.96
49459;BME280;35354;51.296;16.924;2023-03-22T06:46:23;99296.34;;;15.23;83.51
49459;BME280;35354;51.296;16.924;2023-03-22T06:48:48;99296.50;;;14.96;84.33
49459;BME280;35354;51.296;16.924;2023-03-22T06:51:14;99275.56;;;14.84;84.01
49459;BME280;35354;51.296;16.924;2023-03-22T06:53:39;99287.06;;;14.94;84.12
49459;BME280;35354;51.296;16.924;2023-03-22T06:56:05;99282.19;;;14.64;84.10
49459;BME280;35354;51.296;16.924;2023-03-22T06:58:30;99287.13;;;14.56;85.19
49459;BME280;35354;51.296;16.924;2023-03-22T07:00:56;99280.50;;;14.76;84.95
49459;BME280;35354;51.296;16.924;2023-03-22T07:03:21;99295.91;;;14.80;84.89
49459;BME280;35354;51.296;16.924;2023-03-22T07:05:47;99273.81;;;14.59;85.20
49459;BME280;35354;51.296;16.924;2023-03-22T07:08:12;99299.47;;;14.54;85.99
49459;BME280;35354;51.296;16.924;2023-03-22T07:10:37;99291.72;;;14.65;85.72
49459;BME280;35354;51.296;16.924;2023-03-22T07:13:03;99303.78;;;14.67;85.15
49459;BME280;35354;51.296;16.924;2023-03-22T07:15:31;99279.22;;;14.43;84.69
49459;BME280;35354;51.296;16.924;2023-03-22T07:17:58;99298.16;;;14.08;85.58
49459;BME280;35354;51.296;16.924;2023-03-22T07:20:24;99281.22;;;13.47;88.26
49459;BME280;35354;51.296;16.924;2023-03-22T07:22:50;99284.63;;;13.20;90.06
49459;BME280;35354;51.296;16.924;2023-03-22T07:25:15;99278.38;;;13.23;90.93
49459;BME280;35354;51.296;16.924;2023-03-22T07:27:40;99299.88;;;13.55;90.35
49459;BME280;35354;51.296;16.924;2023-03-22T07:30:06;99285.75;;;13.85;89.38
49459;BME280;35354;51.296;16.924;2023-03-22T07:32:32;99286.53;;;14.00;87.96
49459;BME280;35354;51.296;16.924;2023-03-22T07:34:57;99285.28;;;14.43;86.72
49459;BME280;35354;51.296;16.924;2023-03-22T07:37:22;99287.38;;;14.89;85.27
49459;BME280;35354;51.296;16.924;2023-03-22T07:39:48;99291.59;;;15.29;84.00
49459;BME280;35354;51.296;16.924;2023-03-22T07:42:13;99262.50;;;15.80;82.26
49459;BME280;35354;51.296;16.924;2023-03-22T07:44:38;99273.56;;;17.10;79.35
49459;BME280;35354;51.296;16.924;2023-03-22T07:47:04;99274.44;;;17.86;74.57
49459;BME280;35354;51.296;16.924;2023-03-22T07:49:29;99270.94;;;18.17;73.34
49459;BME280;35354;51.296;16.924;2023-03-22T07:51:55;99270.97;;;18.79;71.01
49459;BME280;35354;51.296;16.924;2023-03-22T07:54:21;99278.84;;;19.00;69.86
49459;BME280;35354;51.296;16.924;2023-03-22T07:56:46;99283.09;;;19.31;69.52
49459;BME280;35354;51.296;16.924;2023-03-22T07:59:13;99275.63;;;19.56;67.86
49459;BME280;35354;51.296;16.924;2023-03-22T08:01:38;99272.75;;;19.98;66.51
49459;BME280;35354;51.296;16.924;2023-03-22T08:04:04;99282.22;;;19.81;66.34
49459;BME280;35354;51.296;16.924;2023-03-22T08:06:29;99290.19;;;19.31;67.96
49459;BME280;35354;51.296;16.924;2023-03-22T08:08:56;99280.28;;;18.73;68.96
49459;BME280;35354;51.296;16.924;2023-03-22T08:11:22;99271.56;;;18.10;70.43
49459;BME280;35354;51.296;16.924;2023-03-22T08:13:47;99267.97;;;17.46;71.47
49459;BME280;35354;51.296;16.924;2023-03-22T08:16:12;99288.50;;;17.09;72.86
49459;BME280;35354;51.296;16.924;2023-03-22T08:18:37;99254.91;;;16.57;75.01
49459;BME280;35354;51.296;16.924;2023-03-22T08:21:03;99278.56;;;16.45;75.58
49459;BME280;35354;51.296;16.924;2023-03-22T08:23:28;99273.28;;;16.34;76.24
49459;BME280;35354;51.296;16.924;2023-03-22T08:25:54;99277.84;;;16.32;76.77
49459;BME280;35354;51.296;16.924;2023-03-22T08:28:19;99277.97;;;16.42;76.50
49459;BME280;35354;51.296;16.924;2023-03-22T08:30:46;99268.03;;;16.45;77.09
49459;BME280;35354;51.296;16.924;2023-03-22T08:33:13;99280.47;;;16.55;77.09
49459;BME280;35354;51.296;16.924;2023-03-22T08:35:39;99275.22;;;16.55;76.77
49459;BME280;35354;51.296;16.924;2023-03-22T08:38:04;99267.34;;;16.43;76.14
49459;BME280;35354;51.296;16.924;2023-03-22T08:40:30;99262.31;;;16.40;75.95
49459;BME280;35354;51.296;16.924;2023-03-22T08:42:56;99282.63;;;16.50;76.36
49459;BME280;35354;51.296;16.924;2023-03-22T08:45:23;99277.34;;;16.38;76.81
49459;BME280;35354;51.296;16.924;2023-03-22T08:47:48;99256.19;;;16.29;76.56
49459;BME280;35354;51.296;16.924;2023-03-22T08:50:13;99249.72;;;16.21;77.85
49459;BME280;35354;51.296;16.924;2023-03-22T08:52:39;99272.22;;;16.37;78.03
49459;BME280;35354;51.296;16.924;2023-03-22T08:55:06;99262.66;;;16.36;77.19
49459;BME280;35354;51.296;16.924;2023-03-22T08:57:32;99259.34;;;16.45;76.60
49459;BME280;35354;51.296;16.924;2023-03-22T08:59:58;99252.88;;;16.49;76.99
49459;BME280;35354;51.296;16.924;2023-03-22T09:02:24;99260.66;;;16.62;75.79
49459;BME280;35354;51.296;16.924;2023-03-22T09:04:50;99222.63;;;16.55;76.21
49459;BME280;35354;51.296;16.924;2023-03-22T09:07:15;99238.66;;;16.63;74.24
49459;BME280;35354;51.296;16.924;2023-03-22T09:09:43;99252.53;;;16.76;73.99
49459;BME280;35354;51.296;16.924;2023-03-22T09:12:08;99257.69;;;16.78;74.43
49459;BME280;35354;51.296;16.924;2023-03-22T09:14:34;99254.56;;;16.84;73.33
49459;BME280;35354;51.296;16.924;2023-03-22T09:16:59;99231.00;;;16.71;73.16
49459;BME280;35354;51.296;16.924;2023-03-22T09:19:25;99234.88;;;16.78;72.96
49459;BME280;35354;51.296;16.924;2023-03-22T09:21:50;99233.06;;;16.79;72.95
49459;BME280;35354;51.296;16.924;2023-03-22T09:24:16;99244.38;;;17.02;72.33
49459;BME280;35354;51.296;16.924;2023-03-22T09:26:41;99236.47;;;17.13;69.93
49459;BME280;35354;51.296;16.924;2023-03-22T09:29:06;99222.25;;;17.15;70.36
49459;BME280;35354;51.296;16.924;2023-03-22T09:31:31;99247.81;;;17.25;68.52
49459;BME280;35354;51.296;16.924;2023-03-22T09:33:57;99236.84;;;17.19;69.17
49459;BME280;35354;51.296;16.924;2023-03-22T09:36:22;99223.69;;;17.19;68.92
49459;BME280;35354;51.296;16.924;2023-03-22T09:38:47;99246.25;;;17.33;67.08
49459;BME280;35354;51.296;16.924;2023-03-22T09:41:24;99223.41;;;17.23;67.02
49459;BME280;35354;51.296;16.924;2023-03-22T09:43:56;99237.91;;;17.17;65.85
49459;BME280;35354;51.296;16.924;2023-03-22T09:46:38;99214.00;;;16.98;66.86
49459;BME280;35354;51.296;16.924;2023-03-22T09:49:10;99216.19;;;16.92;66.71
49459;BME280;35354;51.296;16.924;2023-03-22T09:51:40;99206.88;;;16.88;67.68
49459;BME280;35354;51.296;16.924;2023-03-22T09:54:15;99211.53;;;16.85;67.38
49459;BME280;35354;51.296;16.924;2023-03-22T09:56:46;99226.13;;;16.89;67.44
49459;BME280;35354;51.296;16.924;2023-03-22T09:59:39;99205.81;;;16.80;67.38
49459;BME280;35354;51.296;16.924;2023-03-22T10:05:54;99227.44;;;16.94;68.42
49459;BME280;35354;51.296;16.924;2023-03-22T10:08:41;99209.25;;;17.03;67.77
49459;BME280;35354;51.296;16.924;2023-03-22T10:11:18;99219.34;;;17.18;67.04
49459;BME280;35354;51.296;16.924;2023-03-22T10:16:54;99206.19;;;17.18;67.16
49459;BME280;35354;51.296;16.924;2023-03-22T10:19:25;99201.47;;;17.01;67.83
49459;BME280;35354;51.296;16.924;2023-03-22T10:21:52;99211.44;;;16.75;68.40
49459;BME280;35354;51.296;16.924;2023-03-22T10:24:24;99200.91;;;16.75;68.89
49459;BME280;35354;51.296;16.924;2023-03-22T10:26:51;99212.63;;;16.82;68.76
49459;BME280;35354;51.296;16.924;2023-03-22T10:29:38;99205.88;;;17.01;68.20
49459;BME280;35354;51.296;16.924;2023-03-22T10:32:29;99210.09;;;16.92;68.49
49459;BME280;35354;51.296;16.924;2023-03-22T10:34:56;99185.81;;;17.00;68.02
49459;BME280;35354;51.296;16.924;2023-03-22T10:37:24;99149.97;;;16.76;67.38
49459;BME280;35354;51.296;16.924;2023-03-22T10:39:55;99188.41;;;17.11;65.65
49459;BME280;35354;51.296;16.924;2023-03-22T10:42:27;99200.44;;;17.25;65.69
49459;BME280;35354;51.296;16.924;2023-03-22T10:45:01;99203.50;;;17.41;64.54
49459;BME280;35354;51.296;16.924;2023-03-22T10:47:57;99211.72;;;17.48;64.10
49459;BME280;35354;51.296;16.924;2023-03-22T10:50:23;99184.16;;;17.31;63.24
49459;BME280;35354;51.296;16.924;2023-03-22T10:53:06;99194.50;;;17.43;62.99
49459;BME280;35354;51.296;16.924;2023-03-22T10:55:40;99200.19;;;17.60;63.50
49459;BME280;35354;51.296;16.924;2023-03-22T11:00:34;99192.63;;;17.66;62.06
49459;BME280;35354;51.296;16.924;2023-03-22T11:03:00;99174.81;;;17.59;62.04
49459;BME280;35354;51.296;16.924;2023-03-22T11:05:27;99173.22;;;17.67;61.61
49459;BME280;35354;51.296;16.924;2023-03-22T11:07:55;99195.88;;;17.91;61.23
49459;BME280;35354;51.296;16.924;2023-03-22T11:10:30;99191.53;;;17.90;60.38
49459;BME280;35354;51.296;16.924;2023-03-22T11:15:51;99186.34;;;18.00;59.94
49459;BME280;35354;51.296;16.924;2023-03-22T11:18:18;99169.69;;;17.99;58.77
49459;BME280;35354;51.296;16.924;2023-03-22T11:20:57;99188.91;;;18.11;58.86
49459;BME280;35354;51.296;16.924;2023-03-22T11:23:24;99181.16;;;18.19;59.08
49459;BME280;35354;51.296;16.924;2023-03-22T11:25:54;99163.13;;;18.14;58.93
49459;BME280;35354;51.296;16.924;2023-03-22T11:28:49;99167.69;;;18.12;59.19
49459;BME280;35354;51.296;16.924;2023-03-22T11:31:19;99169.09;;;18.16;59.82
49459;BME280;35354;51.296;16.924;2023-03-22T11:33:59;99154.53;;;18.12;59.82
49459;BME280;35354;51.296;16.924;2023-03-22T11:36:25;99139.53;;;18.13;59.49
49459;BME280;35354;51.296;16.924;2023-03-22T11:38:58;99143.19;;;18.22;59.13
49459;BME280;35354;51.296;16.924;2023-03-22T11:41:30;99150.69;;;18.26;59.56
49459;BME280;35354;51.296;16.924;2023-03-22T11:44:04;99144.97;;;18.21;60.94
49459;BME280;35354;51.296;16.924;2023-03-22T11:46:30;99142.47;;;18.19;60.90
49459;BME280;35354;51.296;16.924;2023-03-22T11:49:12;99129.56;;;18.16;60.45
49459;BME280;35354;51.296;16.924;2023-03-22T11:51:39;99137.56;;;18.05;61.40
49459;BME280;35354;51.296;16.924;2023-03-22T11:54:13;99144.69;;;17.73;61.94
49459;BME280;35354;51.296;16.924;2023-03-22T11:56:42;99145.47;;;17.84;62.27
49459;BME280;35354;51.296;16.924;2023-03-22T11:59:24;99119.28;;;17.83;61.96
49459;BME280;35354;51.296;16.924;2023-03-22T12:04:25;99135.81;;;17.74;62.15
49459;BME280;35354;51.296;16.924;2023-03-22T12:06:55;99127.44;;;17.80;62.96
49459;BME280;35354;51.296;16.924;2023-03-22T12:09:27;99129.50;;;17.76;63.77
49459;BME280;35354;51.296;16.924;2023-03-22T12:11:58;99131.22;;;17.87;63.60
49459;BME280;35354;51.296;16.924;2023-03-22T12:14:28;99126.47;;;17.81;63.61
49459;BME280;35354;51.296;16.924;2023-03-22T12:19:52;99101.97;;;17.48;64.07
49459;BME280;35354;51.296;16.924;2023-03-22T12:22:27;99129.47;;;17.55;64.33
49459;BME280;35354;51.296;16.924;2023-03-22T12:24:53;99106.22;;;17.60;64.84
49459;BME280;35354;51.296;16.924;2023-03-22T12:27:23;99117.72;;;17.80;64.71
49459;BME280;35354;51.296;16.924;2023-03-22T12:29:55;99108.66;;;17.94;64.03
49459;BME280;35354;51.296;16.924;2023-03-22T12:32:28;99115.09;;;18.11;63.20
49459;BME280;35354;51.296;16.924;2023-03-22T12:34:55;99115.69;;;18.24;62.62
49459;BME280;35354;51.296;16.924;2023-03-22T12:37:26;99090.03;;;18.16;62.81
49459;BME280;35354;51.296;16.924;2023-03-22T12:40:05;99097.41;;;18.32;62.82
49459;BME280;35354;51.296;16.924;2023-03-22T12:42:36;99107.19;;;18.41;62.73
49459;BME280;35354;51.296;16.924;2023-03-22T12:45:13;99082.97;;;18.27;61.93
49459;BME280;35354;51.296;16.924;2023-03-22T12:47:51;99094.78;;;18.32;62.10
49459;BME280;35354;51.296;16.924;2023-03-22T12:50:33;99076.75;;;17.87;61.85
49459;BME280;35354;51.296;16.924;2023-03-22T12:53:00;99074.38;;;17.94;62.46
49459;BME280;35354;51.296;16.924;2023-03-22T12:55:35;99088.13;;;17.98;62.07
49459;BME280;35354;51.296;16.924;2023-03-22T12:58:04;99088.22;;;17.86;62.53
49459;BME280;35354;51.296;16.924;2023-03-22T13:00:43;99081.00;;;17.79;63.15
49459;BME280;35354;51.296;16.924;2023-03-22T13:05:47;99081.28;;;17.85;62.34
49459;BME280;35354;51.296;16.924;2023-03-22T13:08:18;99085.47;;;17.88;62.26
49459;BME280;35354;51.296;16.924;2023-03-22T13:11:02;99066.06;;;17.68;62.30
49459;BME280;35354;51.296;16.924;2023-03-22T13:16:13;99054.16;;;17.74;62.36
49459;BME280;35354;51.296;16.924;2023-03-22T13:21:18;99068.59;;;18.00;62.42
49459;BME280;35354;51.296;16.924;2023-03-22T13:26:38;99070.72;;;18.16;61.76
49459;BME280;35354;51.296;16.924;2023-03-22T13:29:17;99074.91;;;18.18;61.80
49459;BME280;35354;51.296;16.924;2023-03-22T13:32:23;99058.09;;;18.10;61.17
49459;BME280;35354;51.296;16.924;2023-03-22T13:37:02;99063.09;;;18.13;61.21
49459;BME280;35354;51.296;16.924;2023-03-22T13:39:35;99060.06;;;18.17;61.60
49459;BME280;35354;51.296;16.924;2023-03-22T13:42:20;99042.53;;;18.07;61.22
49459;BME280;35354;51.296;16.924;2023-03-22T13:44:54;99059.41;;;18.25;60.97
49459;BME280;35354;51.296;16.924;2023-03-22T13:47:44;99049.94;;;18.23;60.70
49459;BME280;35354;51.296;16.924;2023-03-22T13:50:19;99053.00;;;18.28;60.01
49459;BME280;35354;51.296;16.924;2023-03-22T13:53:02;99037.19;;;18.18;59.51
49459;BME280;35354;51.296;16.924;2023-03-22T14:00:55;99043.75;;;18.33;59.02
49459;BME280;35354;51.296;16.924;2023-03-22T14:03:30;99028.34;;;18.29;59.77
49459;BME280;35354;51.296;16.924;2023-03-22T14:08:29;99035.69;;;18.35;58.97
49459;BME280;35354;51.296;16.924;2023-03-22T14:11:01;99034.56;;;18.28;58.97